createdAt,value
2023-01-29T16:31:40.789Z,19.83
2023-01-29T16:34:10.241Z,20.04
2023-01-29T16:36:36.532Z,19.81
2023-01-29T16:39:06.373Z,19.67
2023-01-29T16:41:38.743Z,19.50
2023-01-29T16:44:16.731Z,19.57
2023-01-29T16:46:47.540Z,19.67
2023-01-29T16:49:26.131Z,19.55
2023-01-29T16:51:53.159Z,19.39
2023-01-29T16:54:23.994Z,19.43
2023-01-29T16:56:55.435Z,19.41
2023-01-29T16:59:29.660Z,19.40
2023-01-29T17:01:56.117Z,19.37
2023-01-29T17:04:22.665Z,19.38
2023-01-29T17:06:54.333Z,19.36
2023-01-29T17:09:43.520Z,19.36
2023-01-29T17:12:18.787Z,19.35
2023-01-29T17:14:53.899Z,19.34
2023-01-29T17:17:20.174Z,19.32
2023-01-29T17:19:46.347Z,19.33
2023-01-29T17:22:15.359Z,19.33
2023-01-29T17:24:42.297Z,19.31
2023-01-29T17:27:17.969Z,19.33
2023-01-29T17:29:44.195Z,19.33
2023-01-29T17:32:10.579Z,19.34
2023-01-29T17:34:36.800Z,19.37
2023-01-29T17:37:02.912Z,19.43
2023-01-29T17:39:29.109Z,19.44
2023-01-29T17:41:57.897Z,19.31
2023-01-29T17:44:26.456Z,19.16
2023-01-29T17:46:52.567Z,19.14
2023-01-29T17:49:25.552Z,19.13
2023-01-29T17:51:53.244Z,19.12
2023-01-29T17:54:20.164Z,19.13
2023-01-29T17:56:46.760Z,19.11
2023-01-29T17:59:20.913Z,19.06
2023-01-29T18:01:47.631Z,19.12
2023-01-29T18:04:14.187Z,19.10
2023-01-29T18:06:41.849Z,19.15
2023-01-29T18:09:08.139Z,19.11
2023-01-29T18:11:38.059Z,19.16
2023-01-29T18:14:13.813Z,19.17
2023-01-29T18:16:42.312Z,19.19
2023-01-29T18:19:14.956Z,19.20
2023-01-29T18:21:41.325Z,19.20
2023-01-29T18:24:08.278Z,19.20
2023-01-29T18:26:36.012Z,19.22
2023-01-29T18:29:02.440Z,19.17
2023-01-29T18:31:28.668Z,19.19
2023-01-29T18:33:54.887Z,19.18
2023-01-29T18:36:21.025Z,19.19
2023-01-29T18:38:47.206Z,19.19
2023-01-29T18:41:13.349Z,19.18
2023-01-29T18:43:40.912Z,19.19
2023-01-29T18:46:08.291Z,19.12
2023-01-29T18:48:35.152Z,19.15
2023-01-29T18:51:01.437Z,19.19
2023-01-29T18:53:27.722Z,19.16
2023-01-29T18:55:58.825Z,19.20
2023-01-29T18:58:33.816Z,19.18
2023-01-29T19:01:09.083Z,19.15
2023-01-29T19:03:36.317Z,19.09
2023-01-29T19:06:03.476Z,19.17
2023-01-29T19:08:30.423Z,19.24
2023-01-29T19:10:57.941Z,19.36
2023-01-29T19:13:24.114Z,19.42
2023-01-29T19:15:50.275Z,19.41
2023-01-29T19:18:16.791Z,19.41
2023-01-29T19:20:43.043Z,19.36
2023-01-29T19:23:09.678Z,19.34
2023-01-29T19:25:39.828Z,19.31
2023-01-29T19:28:07.332Z,19.31
2023-01-29T19:30:33.844Z,19.27
2023-01-29T19:33:00.113Z,19.25
2023-01-29T19:35:26.433Z,19.29
2023-01-29T19:37:52.573Z,19.29
2023-01-29T19:40:19.091Z,19.28
2023-01-29T19:42:45.214Z,19.31
2023-01-29T19:45:11.570Z,19.29
2023-01-29T19:47:42.213Z,19.32
2023-01-29T19:50:10.571Z,19.30
2023-01-29T19:52:52.284Z,19.39
2023-01-29T19:55:20.564Z,19.44
2023-01-29T19:57:47.197Z,19.49
2023-01-29T20:00:15.601Z,19.53
2023-01-29T20:02:41.810Z,19.62
2023-01-29T20:05:10.069Z,19.73
2023-01-29T20:07:36.799Z,19.65
2023-01-29T20:10:03.613Z,19.59
2023-01-29T20:12:30.328Z,19.58
2023-01-29T20:14:56.856Z,19.58
2023-01-29T20:17:23.070Z,19.57
2023-01-29T20:19:49.215Z,19.55
2023-01-29T20:22:15.339Z,19.58
2023-01-29T20:24:42.687Z,19.58
2023-01-29T20:27:10.836Z,19.54
2023-01-29T20:29:37.801Z,19.56
2023-01-29T20:32:05.372Z,19.56
2023-01-29T20:34:31.958Z,19.58
2023-01-29T20:36:58.181Z,19.55
2023-01-29T20:39:24.303Z,19.56
2023-01-29T20:41:50.646Z,19.55
2023-01-29T20:44:17.020Z,19.57
2023-01-29T20:46:43.240Z,19.59
2023-01-29T20:49:09.531Z,19.56
2023-01-29T20:51:35.711Z,19.57
2023-01-29T20:54:01.849Z,19.56
2023-01-29T20:56:37.412Z,19.56
2023-01-29T20:59:08.686Z,19.55
2023-01-29T21:01:35.194Z,19.55
2023-01-29T21:04:01.546Z,19.55
2023-01-29T21:06:29.639Z,19.56
2023-01-29T21:08:55.902Z,19.61
2023-01-29T21:11:22.472Z,19.56
2023-01-29T21:13:48.636Z,19.57
2023-01-29T21:16:14.863Z,19.55
2023-01-29T21:18:41.078Z,19.53
2023-01-29T21:21:07.280Z,19.53
2023-01-29T21:23:33.466Z,19.49
2023-01-29T21:26:04.409Z,19.52
2023-01-29T21:28:30.601Z,19.49
2023-01-29T21:31:08.538Z,19.54
2023-01-29T21:33:35.117Z,19.54
2023-01-29T21:36:01.957Z,19.53
2023-01-29T21:38:28.440Z,19.52
2023-01-29T21:41:02.458Z,19.51
2023-01-29T21:43:28.885Z,19.37
2023-01-29T21:45:56.830Z,19.50
2023-01-29T21:48:23.497Z,19.50
2023-01-29T21:50:49.844Z,19.40
2023-01-29T21:53:16.036Z,19.52
2023-01-29T21:55:42.483Z,19.55
2023-01-29T21:58:08.650Z,19.14
2023-01-29T22:00:35.031Z,17.70
2023-01-29T22:03:01.236Z,17.11
2023-01-29T22:05:29.198Z,17.47
2023-01-29T22:07:55.907Z,17.43
2023-01-29T22:10:22.534Z,17.16
2023-01-29T22:12:48.907Z,17.11
2023-01-29T22:15:15.668Z,17.37
2023-01-29T22:17:42.476Z,16.92
2023-01-29T22:20:13.802Z,16.80
2023-01-29T22:22:40.460Z,16.91
2023-01-29T22:25:06.828Z,16.79
2023-01-29T22:27:33.907Z,16.94
2023-01-29T22:30:00.282Z,17.97
2023-01-29T22:32:26.527Z,18.38
2023-01-29T22:34:52.673Z,18.57
2023-01-29T22:37:18.846Z,18.67
2023-01-29T22:39:46.060Z,18.73
2023-01-29T22:42:12.193Z,18.77
2023-01-29T22:44:38.378Z,18.80
2023-01-29T22:47:04.525Z,18.83
2023-01-29T22:49:31.529Z,18.84
2023-01-29T22:52:10.193Z,18.86
2023-01-29T22:54:40.599Z,18.91
2023-01-29T22:57:07.110Z,18.92
2023-01-29T22:59:33.786Z,18.95
2023-01-29T23:02:00.089Z,18.94
2023-01-29T23:04:26.487Z,18.92
2023-01-29T23:06:52.628Z,18.96
2023-01-29T23:09:18.780Z,18.97
2023-01-29T23:11:44.946Z,19.00
2023-01-29T23:14:11.060Z,19.01
2023-01-29T23:16:37.196Z,19.01
2023-01-29T23:19:03.360Z,19.02
2023-01-29T23:21:29.563Z,19.01
2023-01-29T23:23:58.391Z,19.03
2023-01-29T23:26:43.902Z,19.03
2023-01-29T23:29:10.384Z,18.99
2023-01-29T23:31:36.608Z,19.02
2023-01-29T23:34:02.844Z,19.05
2023-01-29T23:36:28.987Z,19.06
2023-01-29T23:38:55.200Z,19.05
2023-01-29T23:41:21.531Z,19.07
2023-01-29T23:43:47.648Z,19.06
2023-01-29T23:46:13.865Z,19.04
2023-01-29T23:48:40.065Z,18.98
2023-01-29T23:51:06.346Z,18.96
2023-01-29T23:53:32.491Z,18.93
2023-01-29T23:56:04.104Z,18.91
2023-01-29T23:58:31.236Z,18.90
